Time;durP1;ratioP1;P1;durP2;ratioP2;P2;SDS_P1;SDS_P2;PMS_P1;PMS_P2;Temp;Humidity;BMP_temperature;BMP_pressure;BME280_temperature;BME280_humidity;BME280_pressure;Samples;Min_cycle;Max_cycle;Signal;HPM_P1;HPM_P2
2021/10/25 00:01:19;;;;;;;10.05;7.20;;;7.80;99.90;;;;;;5053024;28;20223;-71
2021/10/25 00:03:46;;;;;;;17.85;8.27;;;7.80;99.90;;;;;;5053019;28;20669;-71
2021/10/25 00:06:13;;;;;;;9.85;8.20;;;7.80;99.90;;;;;;5053193;28;20290;-71
2021/10/25 00:08:40;;;;;;;8.82;7.40;;;7.70;99.90;;;;;;5053100;28;20294;-71
2021/10/25 00:11:07;;;;;;;11.18;7.72;;;7.70;99.90;;;;;;5052720;28;20231;-71
2021/10/25 00:13:33;;;;;;;11.13;7.80;;;7.70;99.90;;;;;;5052866;28;20290;-71
2021/10/25 00:16:02;;;;;;;11.65;7.88;;;7.70;99.90;;;;;;5053082;28;20203;-71
2021/10/25 00:18:29;;;;;;;10.40;7.28;;;7.70;99.90;;;;;;5052989;28;20238;-71
2021/10/25 00:20:56;;;;;;;9.50;7.25;;;7.70;99.90;;;;;;5053098;28;20320;-71
2021/10/25 00:23:23;;;;;;;11.35;8.23;;;7.70;99.90;;;;;;5052614;28;20693;-71
2021/10/25 00:25:50;;;;;;;9.52;7.68;;;7.70;99.90;;;;;;5052963;28;20294;-71
2021/10/25 00:28:17;;;;;;;10.32;6.82;;;7.70;99.90;;;;;;5053577;28;20645;-71
2021/10/25 00:30:44;;;;;;;11.07;7.05;;;7.70;99.90;;;;;;5056825;28;20585;-71
2021/10/25 00:33:13;;;;;;;11.15;7.53;;;7.70;99.90;;;;;;5056552;28;20199;-71
2021/10/25 00:35:39;;;;;;;11.18;7.45;;;7.70;99.90;;;;;;5056722;28;20294;-71
2021/10/25 00:38:06;;;;;;;12.35;8.07;;;7.70;99.90;;;;;;5056636;28;20620;-71
2021/10/25 00:40:33;;;;;;;11.48;7.80;;;7.70;99.90;;;;;;5056541;28;20720;-71
2021/10/25 00:43:00;;;;;;;12.05;7.68;;;7.70;99.90;;;;;;5056345;28;20229;-71
2021/10/25 00:45:27;;;;;;;11.65;8.32;;;7.70;99.90;;;;;;5056381;28;20658;-71
2021/10/25 00:47:54;;;;;;;11.65;7.60;;;7.70;99.90;;;;;;5056452;28;20294;-71
2021/10/25 00:50:22;;;;;;;11.27;7.18;;;7.70;99.90;;;;;;5056191;28;20227;-71
2021/10/25 00:52:50;;;;;;;10.88;7.45;;;7.70;99.90;;;;;;5056285;28;20546;-71
2021/10/25 00:55:17;;;;;;;11.20;7.50;;;7.70;99.90;;;;;;5056247;28;20298;-71
2021/10/25 00:57:44;;;;;;;11.38;8.82;;;7.70;99.90;;;;;;5056313;28;20298;-71
2021/10/25 01:00:12;;;;;;;12.68;8.30;;;7.60;99.90;;;;;;5056259;28;20223;-71
2021/10/25 01:02:39;;;;;;;11.45;7.78;;;7.60;99.90;;;;;;5055951;28;20219;-71
2021/10/25 01:05:07;;;;;;;15.23;8.55;;;7.60;99.90;;;;;;5056138;28;20210;-71
2021/10/25 01:07:38;;;;;;;12.75;8.38;;;7.50;99.90;;;;;;5055772;28;20290;-71
2021/10/25 01:10:05;;;;;;;12.27;7.50;;;7.30;99.90;;;;;;5056108;28;20234;-71
2021/10/25 01:12:33;;;;;;;10.75;7.90;;;7.40;99.90;;;;;;5055856;28;20298;-71
2021/10/25 01:14:59;;;;;;;11.98;8.30;;;7.40;99.90;;;;;;5055831;28;20293;-71
2021/10/25 01:17:27;;;;;;;10.98;7.75;;;7.40;99.90;;;;;;5055911;28;20199;-71
2021/10/25 01:19:56;;;;;;;12.73;7.72;;;7.40;99.90;;;;;;5055676;28;20330;-71
2021/10/25 01:22:23;;;;;;;14.35;8.88;;;7.40;99.90;;;;;;5055618;28;20231;-71
2021/10/25 01:24:51;;;;;;;13.77;8.05;;;7.40;99.90;;;;;;5055500;28;20211;-71
2021/10/25 01:27:18;;;;;;;14.00;8.73;;;7.40;99.90;;;;;;5055742;28;20215;-71
2021/10/25 01:29:46;;;;;;;10.38;8.55;;;7.40;99.90;;;;;;5055921;28;20573;-71
2021/10/25 01:32:13;;;;;;;12.73;8.98;;;7.40;99.90;;;;;;5055209;28;20626;-71
2021/10/25 01:34:40;;;;;;;13.88;9.23;;;7.30;99.90;;;;;;5055510;28;20619;-71
2021/10/25 01:37:09;;;;;;;11.90;8.32;;;7.30;99.90;;;;;;5055599;28;20305;-71
2021/10/25 01:39:36;;;;;;;11.88;7.80;;;7.40;99.90;;;;;;5055159;28;20761;-71
2021/10/25 01:42:03;;;;;;;10.77;7.65;;;7.40;99.90;;;;;;5054615;28;20213;-71
2021/10/25 01:44:31;;;;;;;12.55;8.75;;;7.50;99.90;;;;;;5055175;28;20204;-71
2021/10/25 01:46:58;;;;;;;14.10;8.45;;;7.40;99.90;;;;;;5055318;28;20207;-71
2021/10/25 01:49:25;;;;;;;18.95;8.77;;;7.30;99.90;;;;;;5055328;28;20236;-71
2021/10/25 01:51:52;;;;;;;13.75;8.85;;;7.30;99.90;;;;;;5055139;28;20302;-71
2021/10/25 01:54:20;;;;;;;12.75;7.95;;;7.10;99.90;;;;;;5055159;28;20299;-71
2021/10/25 01:56:47;;;;;;;13.27;8.27;;;7.00;99.90;;;;;;5055211;28;20203;-71
2021/10/25 01:59:14;;;;;;;12.80;8.38;;;7.00;99.90;;;;;;5055089;28;20587;-71
2021/10/25 02:01:41;;;;;;;9.70;7.68;;;7.10;99.90;;;;;;5054631;28;20692;-71
2021/10/25 02:04:08;;;;;;;12.00;8.98;;;7.10;99.90;;;;;;5054758;28;20313;-71
2021/10/25 02:06:35;;;;;;;11.25;8.18;;;7.20;99.90;;;;;;5055026;28;20242;-71
2021/10/25 02:09:04;;;;;;;15.38;8.70;;;7.20;99.90;;;;;;5054932;28;20207;-71
2021/10/25 02:11:33;;;;;;;15.25;8.85;;;7.20;99.90;;;;;;5054938;28;20212;-71
2021/10/25 02:14:00;;;;;;;10.75;7.43;;;7.30;99.90;;;;;;5054829;28;20294;-71
2021/10/25 02:16:27;;;;;;;12.27;7.53;;;7.20;99.90;;;;;;5054801;28;20210;-71
2021/10/25 02:18:54;;;;;;;13.73;8.35;;;7.20;99.90;;;;;;5054758;28;20203;-71
2021/10/25 02:21:21;;;;;;;9.70;7.72;;;7.20;99.90;;;;;;5054532;28;20310;-71
2021/10/25 02:23:48;;;;;;;11.25;7.90;;;7.20;99.90;;;;;;5054448;28;20258;-71
2021/10/25 02:26:15;;;;;;;12.98;7.35;;;7.20;99.90;;;;;;5054514;28;20208;-71
2021/10/25 02:28:43;;;;;;;13.65;8.05;;;7.10;99.90;;;;;;5054493;28;20210;-71
2021/10/25 02:31:11;;;;;;;16.35;8.00;;;7.10;99.90;;;;;;5054368;28;20314;-71
2021/10/25 02:33:38;;;;;;;12.70;7.40;;;7.10;99.90;;;;;;5054275;28;20650;-71
2021/10/25 02:36:07;;;;;;;12.60;7.40;;;7.00;99.90;;;;;;5054269;28;20298;-71
2021/10/25 02:38:34;;;;;;;13.77;8.60;;;6.90;99.90;;;;;;5054649;28;20214;-71
2021/10/25 02:41:01;;;;;;;11.68;8.10;;;6.90;99.90;;;;;;5054234;28;20251;-71
2021/10/25 02:43:28;;;;;;;12.68;7.63;;;7.00;99.90;;;;;;5054238;28;20255;-71
2021/10/25 02:45:57;;;;;;;10.43;7.40;;;7.00;99.90;;;;;;5054146;28;20246;-71
2021/10/25 02:48:25;;;;;;;9.45;7.30;;;7.00;99.90;;;;;;5054229;28;20207;-71
2021/10/25 02:50:52;;;;;;;10.95;7.63;;;6.90;99.90;;;;;;5054257;28;20223;-71
2021/10/25 02:53:20;;;;;;;13.38;7.85;;;6.70;99.90;;;;;;5053217;28;20566;-71
2021/10/25 02:55:47;;;;;;;11.32;7.32;;;6.70;99.90;;;;;;5053964;28;20207;-71
2021/10/25 02:58:14;;;;;;;11.70;7.57;;;6.70;99.90;;;;;;5054047;28;20203;-71
2021/10/25 03:00:41;;;;;;;10.50;6.68;;;6.80;99.90;;;;;;5054140;28;20230;-71
2021/10/25 03:03:10;;;;;;;9.63;7.05;;;6.80;99.90;;;;;;5053791;28;20246;-71
2021/10/25 03:05:37;;;;;;;12.43;8.27;;;6.80;99.90;;;;;;5053920;28;20199;-71
2021/10/25 03:08:04;;;;;;;10.40;7.05;;;6.90;99.90;;;;;;5053877;28;20208;-71
2021/10/25 03:10:31;;;;;;;12.38;7.53;;;7.00;99.90;;;;;;5053612;28;20226;-71
2021/10/25 03:12:58;;;;;;;12.70;7.28;;;7.00;99.90;;;;;;5053426;28;20200;-71
2021/10/25 03:15:25;;;;;;;10.43;7.78;;;7.00;99.90;;;;;;5053781;28;20294;-71
2021/10/25 03:17:52;;;;;;;11.20;7.85;;;6.70;99.90;;;;;;5053712;28;20566;-71
2021/10/25 03:20:21;;;;;;;13.95;7.00;;;6.70;99.90;;;;;;5053623;28;20648;-71
2021/10/25 03:22:48;;;;;;;11.02;6.85;;;6.70;99.90;;;;;;5053077;28;20310;-71
2021/10/25 03:25:15;;;;;;;10.05;7.47;;;6.80;99.90;;;;;;5053401;28;20211;-71
2021/10/25 03:27:43;;;;;;;10.10;7.60;;;6.90;99.90;;;;;;5053624;28;20295;-71
2021/10/25 03:30:12;;;;;;;11.38;7.68;;;6.90;99.90;;;;;;5053217;28;20285;-71
2021/10/25 03:32:38;;;;;;;9.43;6.70;;;7.00;99.90;;;;;;5053415;28;20562;-71
2021/10/25 03:35:06;;;;;;;10.95;7.72;;;7.00;99.90;;;;;;5053562;28;20210;-71
2021/10/25 03:37:37;;;;;;;9.68;6.93;;;7.00;99.90;;;;;;5053502;28;20580;-71
2021/10/25 03:40:04;;;;;;;11.32;7.45;;;7.00;99.90;;;;;;5053581;28;20259;-71
2021/10/25 03:42:38;;;;;;;11.50;6.88;;;7.00;99.90;;;;;;5053266;28;20199;-71
2021/10/25 03:45:14;;;;;;;9.07;7.55;;;7.00;99.90;;;;;;5053575;28;20211;-71
2021/10/25 03:47:44;;;;;;;11.18;7.75;;;7.00;99.90;;;;;;5053453;28;20238;-71
2021/10/25 03:50:14;;;;;;;8.48;5.63;;;6.90;99.90;;;;;;5053374;28;20265;-71
2021/10/25 03:52:48;;;;;;;11.52;7.97;;;6.90;99.90;;;;;;5053045;28;20209;-71
2021/10/25 03:55:19;;;;;;;12.50;8.15;;;6.90;99.90;;;;;;5053356;28;20203;-71
2021/10/25 04:01:18;;;;;;;9.63;6.60;;;6.90;99.90;;;;;;5053227;28;20211;-71
2021/10/25 04:28:39;;;;;;;12.18;7.28;;;6.30;99.90;;;;;;5057079;28;20531;-71
2021/10/25 04:31:07;;;;;;;12.10;7.32;;;6.40;99.90;;;;;;5056698;28;20318;-70
2021/10/25 04:33:34;;;;;;;9.85;7.82;;;6.40;99.90;;;;;;5056529;28;20256;-71
2021/10/25 04:36:01;;;;;;;10.75;7.50;;;6.50;99.90;;;;;;5056743;28;20298;-71
2021/10/25 04:38:28;;;;;;;10.75;7.80;;;6.50;99.90;;;;;;5056467;28;20732;-71
2021/10/25 04:40:55;;;;;;;10.88;7.10;;;6.50;99.90;;;;;;5056341;28;20740;-71
2021/10/25 04:43:23;;;;;;;11.35;6.63;;;6.50;99.90;;;;;;5056402;28;20319;-71
2021/10/25 04:45:50;;;;;;;10.45;7.80;;;6.40;99.90;;;;;;5056542;28;20203;-71
2021/10/25 04:48:18;;;;;;;10.88;7.43;;;6.40;99.90;;;;;;5056219;28;20203;-71
2021/10/25 04:50:45;;;;;;;17.83;7.82;;;6.40;99.90;;;;;;5056424;28;20234;-71
2021/10/25 04:53:11;;;;;;;12.70;8.02;;;6.20;99.90;;;;;;5056297;28;20585;-71
2021/10/25 04:55:38;;;;;;;10.55;7.00;;;6.20;99.90;;;;;;5056378;28;20299;-71
2021/10/25 04:58:05;;;;;;;11.90;7.45;;;6.10;99.90;;;;;;5056165;28;20203;-71
2021/10/25 05:00:34;;;;;;;11.05;7.20;;;6.10;99.90;;;;;;5056024;28;20223;-71
2021/10/25 05:03:02;;;;;;;14.40;8.05;;;6.00;99.90;;;;;;5055693;28;20208;-71
2021/10/25 05:05:29;;;;;;;11.20;7.60;;;6.10;99.90;;;;;;5055911;28;20203;-71
2021/10/25 05:07:55;;;;;;;14.45;8.20;;;6.20;99.90;;;;;;5056169;28;20210;-71
2021/10/25 05:10:22;;;;;;;10.40;7.70;;;6.00;99.90;;;;;;5055915;28;20698;-71
2021/10/25 05:12:49;;;;;;;14.05;8.00;;;6.00;99.90;;;;;;5055840;28;20214;-71
2021/10/25 05:15:16;;;;;;;10.65;7.03;;;6.00;99.90;;;;;;5055008;28;20295;-71
2021/10/25 05:17:44;;;;;;;9.73;6.93;;;6.00;99.90;;;;;;5055940;28;20290;-71
2021/10/25 05:20:12;;;;;;;10.52;7.07;;;6.10;99.90;;;;;;5055897;28;20310;-71
2021/10/25 05:22:38;;;;;;;11.75;8.07;;;6.20;99.90;;;;;;5055725;28;20649;-71
2021/10/25 05:25:06;;;;;;;10.80;7.65;;;6.30;99.90;;;;;;5055487;28;20227;-71
2021/10/25 05:27:34;;;;;;;11.02;7.63;;;6.40;99.90;;;;;;5055799;28;20246;-71
2021/10/25 05:30:01;;;;;;;15.63;8.75;;;6.50;99.90;;;;;;5055550;28;20224;-71
2021/10/25 05:32:28;;;;;;;11.95;8.35;;;6.50;99.90;;;;;;5055489;28;20569;-71
2021/10/25 05:34:56;;;;;;;10.95;8.45;;;6.40;99.90;;;;;;5055467;28;20294;-71
2021/10/25 05:37:24;;;;;;;14.77;8.20;;;6.40;99.90;;;;;;5055465;28;20211;-71
2021/10/25 05:39:51;;;;;;;10.68;7.53;;;6.50;99.90;;;;;;5055494;28;20314;-71
2021/10/25 05:42:18;;;;;;;12.30;8.23;;;6.40;99.90;;;;;;5055146;28;20297;-71
2021/10/25 05:44:45;;;;;;;12.55;7.80;;;6.40;99.90;;;;;;5055068;28;20261;-71
2021/10/25 05:47:13;;;;;;;10.55;7.57;;;6.40;99.90;;;;;;5055771;28;20257;-71
2021/10/25 05:49:40;;;;;;;13.48;8.35;;;6.50;99.90;;;;;;5055263;28;20224;-71
2021/10/25 05:52:08;;;;;;;9.60;7.50;;;6.50;99.90;;;;;;5055236;28;20238;-71
2021/10/25 05:54:35;;;;;;;11.00;7.68;;;6.50;99.90;;;;;;5055271;28;20203;-71
2021/10/25 05:57:02;;;;;;;11.05;7.25;;;6.50;99.90;;;;;;5055174;28;20207;-71
2021/10/25 05:59:33;;;;;;;11.23;7.65;;;6.50;99.90;;;;;;5054862;28;20231;-71
2021/10/25 06:02:08;;;;;;;10.07;7.85;;;6.40;99.90;;;;;;5055033;28;20222;-71
2021/10/25 06:04:35;;;;;;;10.57;6.75;;;6.30;99.90;;;;;;5054900;28;20689;-71
2021/10/25 06:07:01;;;;;;;8.48;6.78;;;6.30;99.90;;;;;;5054935;28;20235;-71
2021/10/25 06:09:33;;;;;;;10.85;8.35;;;6.30;99.90;;;;;;5054907;28;20230;-71
2021/10/25 06:12:03;;;;;;;11.93;7.70;;;6.20;99.90;;;;;;5054826;28;20717;-71
2021/10/25 06:14:34;;;;;;;9.55;7.78;;;6.20;99.90;;;;;;5054652;28;20654;-71
2021/10/25 06:17:02;;;;;;;10.85;7.18;;;6.30;99.90;;;;;;5054862;28;20206;-71
2021/10/25 06:19:29;;;;;;;11.48;7.85;;;6.30;99.90;;;;;;5054675;28;20223;-71
2021/10/25 06:21:56;;;;;;;8.35;6.65;;;6.30;99.90;;;;;;5054619;28;20212;-71
2021/10/25 06:24:22;;;;;;;9.35;6.57;;;6.40;99.90;;;;;;5054521;28;20239;-71
2021/10/25 06:26:51;;;;;;;12.38;7.80;;;6.50;99.90;;;;;;5054670;28;20203;-71
2021/10/25 06:29:17;;;;;;;11.35;8.55;;;6.60;99.90;;;;;;5054470;28;20681;-71
2021/10/25 06:31:44;;;;;;;10.75;7.50;;;6.60;99.90;;;;;;5055347;28;20239;-71
2021/10/25 06:34:20;;;;;;;9.52;6.85;;;6.60;99.90;;;;;;5055071;28;20200;-71
2021/10/25 06:36:51;;;;;;;9.52;6.55;;;6.60;99.90;;;;;;5055070;28;20199;-72
2021/10/25 06:39:24;;;;;;;9.82;7.93;;;6.70;99.90;;;;;;5054529;28;20199;-71
2021/10/25 06:41:52;;;;;;;10.35;7.15;;;6.80;99.90;;;;;;5054141;28;20606;-71
2021/10/25 06:44:19;;;;;;;10.95;7.85;;;6.70;99.90;;;;;;5054153;28;20251;-71
2021/10/25 06:46:46;;;;;;;10.27;7.13;;;6.70;99.90;;;;;;5054341;28;20319;-71
2021/10/25 06:49:12;;;;;;;10.90;8.15;;;6.70;99.90;;;;;;5054079;28;20210;-71
2021/10/25 06:51:39;;;;;;;11.35;7.22;;;6.70;99.90;;;;;;5053774;28;20681;-71
2021/10/25 06:54:07;;;;;;;9.07;6.63;;;6.60;99.90;;;;;;5054126;28;20230;-71
2021/10/25 06:56:34;;;;;;;10.45;7.50;;;6.40;99.90;;;;;;5054031;28;20658;-71
2021/10/25 06:59:02;;;;;;;9.20;6.70;;;6.20;99.90;;;;;;5054107;28;20246;-71
2021/10/25 07:01:30;;;;;;;13.48;8.40;;;6.20;99.90;;;;;;5053984;28;20194;-71
2021/10/25 07:03:57;;;;;;;10.70;7.85;;;6.20;99.90;;;;;;5054021;28;20294;-71
2021/10/25 07:06:24;;;;;;;9.18;6.72;;;6.20;99.90;;;;;;5053961;28;20212;-71
2021/10/25 07:08:53;;;;;;;9.77;7.00;;;6.30;99.90;;;;;;5054124;28;20237;-71
2021/10/25 07:11:20;;;;;;;12.45;7.90;;;6.20;99.90;;;;;;5054358;28;20265;-71
2021/10/25 07:13:48;;;;;;;11.30;8.00;;;6.40;99.90;;;;;;5054449;28;20257;-71
2021/10/25 07:16:21;;;;;;;13.02;8.45;;;6.50;99.90;;;;;;5054459;28;20204;-71
2021/10/25 07:19:01;;;;;;;12.05;8.45;;;6.60;99.90;;;;;;5054144;28;20727;-71
2021/10/25 07:21:56;;;;;;;12.73;8.65;;;6.70;99.90;;;;;;5054321;28;20194;-71
2021/10/25 08:08:34;;;;;;;14.98;9.73;;;7.40;99.90;;;;;;5053180;28;20200;-71
2021/10/25 08:11:03;;;;;;;16.80;10.50;;;7.50;99.90;;;;;;5053102;28;20234;-71
2021/10/25 08:13:34;;;;;;;12.20;9.00;;;7.60;99.90;;;;;;5053089;28;20211;-71
2021/10/25 08:16:09;;;;;;;16.02;9.52;;;7.70;99.90;;;;;;5053175;28;20203;-71
2021/10/25 08:18:53;;;;;;;12.32;9.48;;;7.90;99.90;;;;;;5053121;28;20696;-71
2021/10/25 08:21:22;;;;;;;16.02;9.90;;;8.00;99.90;;;;;;5053062;28;20223;-71
2021/10/25 08:23:49;;;;;;;13.15;9.50;;;8.20;99.90;;;;;;5052911;28;20211;-71
2021/10/25 08:26:16;;;;;;;15.85;9.48;;;8.30;99.90;;;;;;5052983;28;20214;-71
2021/10/25 08:28:44;;;;;;;16.52;9.50;;;8.40;99.90;;;;;;5053130;28;20237;-71
2021/10/25 08:31:12;;;;;;;15.25;9.05;;;8.40;99.90;;;;;;5052820;28;20219;-71
2021/10/25 08:34:01;;;;;;;16.60;8.68;;;8.40;99.90;;;;;;5053190;28;20235;-71
2021/10/25 08:39:46;;;;;;;12.38;8.40;;;8.40;99.90;;;;;;5052815;28;20680;-71
2021/10/25 08:42:08;;;;;;;13.35;9.60;;;8.70;99.90;;;;;;5052616;28;20221;-71
2021/10/25 08:44:35;;;;;;;11.45;8.80;;;8.90;99.90;;;;;;5052865;28;20314;-71
2021/10/25 08:47:02;;;;;;;14.80;8.32;;;9.00;99.90;;;;;;5052806;28;20662;-71
2021/10/25 08:49:31;;;;;;;11.32;8.20;;;9.20;99.90;;;;;;5052654;28;20788;-71
2021/10/25 08:52:00;;;;;;;12.77;9.52;;;9.40;99.90;;;;;;5055637;28;20210;-71
2021/10/25 08:54:27;;;;;;;12.52;8.75;;;9.60;99.90;;;;;;5056346;28;20238;-71
2021/10/25 08:56:54;;;;;;;15.40;9.45;;;9.70;99.90;;;;;;5056208;28;20669;-71
2021/10/25 08:59:22;;;;;;;10.95;9.35;;;9.80;99.90;;;;;;5056076;28;20214;-71
2021/10/25 09:01:48;;;;;;;18.60;8.60;;;9.90;99.90;;;;;;5055899;28;20208;-71
2021/10/25 09:04:16;;;;;;;12.00;8.48;;;9.90;99.90;;;;;;5056175;28;20563;-71
2021/10/25 09:06:54;;;;;;;12.45;8.50;;;10.00;99.90;;;;;;5056108;28;20573;-71
2021/10/25 09:09:23;;;;;;;12.88;9.18;;;9.90;99.90;;;;;;5056132;28;20306;-71
2021/10/25 09:11:57;;;;;;;12.15;8.07;;;9.70;99.90;;;;;;5056029;28;20231;-71
2021/10/25 09:14:24;;;;;;;13.77;9.90;;;9.80;99.90;;;;;;5055967;28;20194;-71
2021/10/25 09:16:56;;;;;;;12.35;8.68;;;9.80;99.90;;;;;;5056058;28;20611;-71
2021/10/25 09:19:23;;;;;;;12.10;8.90;;;9.80;99.90;;;;;;5056042;28;20238;-71
2021/10/25 09:21:51;;;;;;;12.00;9.20;;;9.80;99.90;;;;;;5055748;28;20204;-71
2021/10/25 09:24:19;;;;;;;13.98;9.93;;;10.00;99.90;;;;;;5055619;28;20273;-71
2021/10/25 09:26:58;;;;;;;11.45;8.05;;;9.90;99.90;;;;;;5055843;28;20635;-71
2021/10/25 09:29:27;;;;;;;13.05;8.70;;;9.90;99.90;;;;;;5055751;28;20219;-71
2021/10/25 09:31:55;;;;;;;11.23;9.40;;;9.90;99.90;;;;;;5055613;28;20226;-71
2021/10/25 09:34:34;;;;;;;15.00;9.63;;;9.80;99.90;;;;;;5055496;28;20231;-71
2021/10/25 09:37:07;;;;;;;11.57;8.80;;;9.80;99.90;;;;;;5055680;28;20207;-71
2021/10/25 09:39:45;;;;;;;12.35;10.20;;;9.90;99.90;;;;;;5055572;28;20227;-71
2021/10/25 09:42:25;;;;;;;15.60;9.52;;;10.00;99.90;;;;;;5055431;28;20274;-71
2021/10/25 09:50:41;;;;;;;13.80;10.13;;;10.40;99.90;;;;;;5055213;28;20218;-71
2021/10/25 09:53:09;;;;;;;13.90;9.30;;;10.40;99.90;;;;;;5055219;28;20338;-71
2021/10/25 09:55:43;;;;;;;12.25;8.75;;;10.50;99.90;;;;;;5055296;28;20203;-71
2021/10/25 09:58:18;;;;;;;12.07;8.63;;;10.60;99.90;;;;;;5055238;28;20208;-71
2021/10/25 10:00:45;;;;;;;13.90;9.50;;;10.60;99.90;;;;;;5054946;28;20314;-71
2021/10/25 10:03:13;;;;;;;11.75;8.48;;;10.50;99.90;;;;;;5054857;28;20203;-71
2021/10/25 10:05:41;;;;;;;11.77;9.43;;;10.40;99.90;;;;;;5055030;28;20249;-71
2021/10/25 10:08:09;;;;;;;13.73;8.98;;;10.50;99.90;;;;;;5055320;28;20235;-71
2021/10/25 10:10:36;;;;;;;12.57;8.90;;;10.50;99.90;;;;;;5054773;28;20234;-71
2021/10/25 10:13:04;;;;;;;15.45;9.52;;;10.60;99.90;;;;;;5054476;28;20657;-71
2021/10/25 10:15:34;;;;;;;12.18;9.25;;;10.70;99.90;;;;;;5054807;28;20200;-71
2021/10/25 10:18:06;;;;;;;9.35;7.63;;;10.80;99.90;;;;;;5054921;28;20261;-71
2021/10/25 10:20:35;;;;;;;12.05;8.35;;;11.00;99.90;;;;;;5054812;28;20227;-71
2021/10/25 10:23:06;;;;;;;11.60;8.57;;;11.20;99.90;;;;;;5054578;28;20290;-71
2021/10/25 10:25:35;;;;;;;12.32;8.82;;;11.40;99.90;;;;;;5054546;28;20231;-71
2021/10/25 10:28:05;;;;;;;11.93;8.02;;;11.50;99.90;;;;;;5054551;28;20298;-71
2021/10/25 10:30:48;;;;;;;9.90;8.27;;;11.60;99.90;;;;;;5054605;28;20225;-71
2021/10/25 10:33:15;;;;;;;11.63;8.57;;;11.70;99.90;;;;;;5054487;28;20207;-71
2021/10/25 10:35:44;;;;;;;10.13;8.38;;;11.70;99.90;;;;;;5054404;28;20752;-71
2021/10/25 10:38:11;;;;;;;12.43;8.52;;;11.70;99.90;;;;;;5054395;28;20210;-71
2021/10/25 10:40:39;;;;;;;13.88;8.85;;;11.60;99.90;;;;;;5054335;28;20315;-71
2021/10/25 10:43:11;;;;;;;12.10;8.02;;;11.60;99.90;;;;;;5053895;28;20207;-71
2021/10/25 10:45:39;;;;;;;9.00;7.63;;;11.70;99.90;;;;;;5054305;28;20261;-71
2021/10/25 10:48:07;;;;;;;11.35;8.30;;;11.60;99.90;;;;;;5054111;28;20291;-71
2021/10/25 10:50:43;;;;;;;12.10;8.30;;;11.60;99.90;;;;;;5054024;28;20224;-71
2021/10/25 10:53:12;;;;;;;9.57;8.23;;;11.60;99.90;;;;;;5054080;28;20577;-71
2021/10/25 10:55:42;;;;;;;8.95;7.22;;;11.60;99.90;;;;;;5054159;28;20203;-71
2021/10/25 10:58:24;;;;;;;9.98;8.35;;;11.70;99.90;;;;;;5054837;28;20206;-71
2021/10/25 11:01:01;;;;;;;12.52;8.82;;;11.90;99.90;;;;;;5054033;28;20231;-71
2021/10/25 11:03:29;;;;;;;10.00;7.82;;;11.90;99.90;;;;;;5054080;28;20238;-71
2021/10/25 11:06:01;;;;;;;9.35;7.53;;;11.90;99.90;;;;;;5053914;28;20233;-71
2021/10/25 11:08:32;;;;;;;12.25;7.82;;;12.00;99.90;;;;;;5054094;28;20203;-71
2021/10/25 11:11:02;;;;;;;9.85;7.72;;;12.20;99.90;;;;;;5053816;28;20315;-71
2021/10/25 11:13:32;;;;;;;9.68;8.00;;;12.30;99.90;;;;;;5053155;28;20290;-71
2021/10/25 11:16:07;;;;;;;10.73;7.28;;;12.60;99.90;;;;;;5053762;28;20204;-71
2021/10/25 11:18:36;;;;;;;12.60;8.73;;;12.80;99.90;;;;;;5053890;28;20202;-72
2021/10/25 11:21:16;;;;;;;9.27;7.15;;;12.90;99.90;;;;;;5053277;28;20318;-71
2021/10/25 11:23:47;;;;;;;11.40;7.82;;;13.00;99.90;;;;;;5053518;28;20215;-72
2021/10/25 11:26:17;;;;;;;7.80;6.80;;;12.90;99.90;;;;;;5053662;28;20313;-72
2021/10/25 11:29:02;;;;;;;10.82;8.32;;;12.80;99.90;;;;;;5053462;28;20207;-71
2021/10/25 11:31:32;;;;;;;9.10;7.25;;;12.80;99.90;;;;;;5053539;28;20198;-71
2021/10/25 11:34:00;;;;;;;9.50;7.47;;;12.70;99.90;;;;;;5053439;28;20591;-72
2021/10/25 11:36:30;;;;;;;12.48;8.23;;;12.60;99.90;;;;;;5053503;28;20294;-72
2021/10/25 11:38:58;;;;;;;8.82;7.90;;;12.60;99.90;;;;;;5053540;28;20682;-72
2021/10/25 11:41:25;;;;;;;7.70;6.30;;;12.60;99.90;;;;;;5053328;28;20227;-71
2021/10/25 11:43:53;;;;;;;9.00;6.78;;;12.60;99.90;;;;;;5053330;28;20669;-71
2021/10/25 11:46:21;;;;;;;10.90;7.88;;;12.70;99.90;;;;;;5053370;28;20237;-72
2021/10/25 11:48:58;;;;;;;7.18;6.22;;;12.70;99.90;;;;;;5053465;28;20638;-72
2021/10/25 11:51:26;;;;;;;8.80;6.68;;;12.70;99.90;;;;;;5053254;28;20285;-71
2021/10/25 11:53:56;;;;;;;8.77;6.90;;;12.80;99.90;;;;;;5053390;28;20203;-72
2021/10/25 11:56:24;;;;;;;9.25;6.82;;;12.80;99.90;;;;;;5053390;28;20199;-72
2021/10/25 11:58:52;;;;;;;10.52;7.00;;;13.10;99.90;;;;;;5053218;28;20199;-72
2021/10/25 12:01:19;;;;;;;8.55;7.20;;;13.10;99.90;;;;;;5053164;28;20277;-71
2021/10/25 12:03:45;;;;;;;9.68;6.78;;;13.10;99.90;;;;;;5053206;28;20302;-72
2021/10/25 12:06:21;;;;;;;7.53;6.15;;;13.10;99.90;;;;;;5052960;28;20690;-72
2021/10/25 12:08:59;;;;;;;10.30;7.25;;;13.10;99.90;;;;;;5053264;28;20203;-72
2021/10/25 12:11:36;;;;;;;8.82;5.65;;;13.10;99.90;;;;;;5053445;28;20231;-72
2021/10/25 12:14:04;;;;;;;8.00;5.97;;;13.40;99.90;;;;;;5053167;28;20210;-72
2021/10/25 12:16:32;;;;;;;8.00;6.20;;;13.60;99.90;;;;;;5053176;28;20200;-72
2021/10/25 12:19:00;;;;;;;5.90;5.30;;;13.90;99.90;;;;;;5053157;28;20621;-72
2021/10/25 12:21:37;;;;;;;7.97;5.85;;;14.10;99.90;;;;;;5053073;28;20306;-71
2021/10/25 12:24:10;;;;;;;8.70;6.30;;;14.10;99.90;;;;;;5053197;28;20304;-71
2021/10/25 12:26:37;;;;;;;6.03;5.25;;;14.30;99.90;;;;;;5056843;28;20584;-72
2021/10/25 12:29:14;;;;;;;6.78;5.72;;;14.80;99.90;;;;;;5056715;28;20211;-72
2021/10/25 12:31:41;;;;;;;7.15;5.35;;;15.20;99.90;;;;;;5056861;28;20191;-72
2021/10/25 12:34:08;;;;;;;6.25;5.05;;;15.60;99.90;;;;;;5056894;28;20305;-72
2021/10/25 12:36:38;;;;;;;6.65;4.90;;;15.90;99.90;;;;;;5056807;28;20290;-72
2021/10/25 12:39:11;;;;;;;6.68;4.95;;;16.20;99.90;;;;;;5056576;28;20294;-72
2021/10/25 12:41:46;;;;;;;5.22;4.70;;;15.90;99.90;;;;;;5056568;28;20206;-72
2021/10/25 12:44:23;;;;;;;5.10;4.35;;;15.70;99.90;;;;;;5056634;28;20206;-72
2021/10/25 12:46:51;;;;;;;5.05;4.50;;;15.60;99.90;;;;;;5056561;28;20261;-72
2021/10/25 12:49:20;;;;;;;5.03;4.53;;;15.60;99.90;;;;;;5056368;28;20235;-72
2021/10/25 12:51:49;;;;;;;6.90;4.97;;;15.30;99.90;;;;;;5056036;28;20222;-71
2021/10/25 12:54:16;;;;;;;5.95;4.78;;;15.30;99.90;;;;;;5056241;28;20206;-72
2021/10/25 12:56:44;;;;;;;5.63;5.00;;;15.20;99.90;;;;;;5056264;28;20608;-72
2021/10/25 12:59:15;;;;;;;5.75;5.15;;;15.40;99.90;;;;;;5056177;28;20214;-72
2021/10/25 13:01:52;;;;;;;6.78;5.22;;;15.50;99.90;;;;;;5056008;28;20216;-71
2021/10/25 13:04:20;;;;;;;5.53;4.47;;;15.60;99.90;;;;;;5056207;28;20545;-72
2021/10/25 13:06:49;;;;;;;6.03;4.75;;;15.60;99.90;;;;;;5055974;28;20758;-72
2021/10/25 13:09:16;;;;;;;8.18;4.60;;;15.60;99.60;;;;;;5056075;28;20632;-71
2021/10/25 13:11:45;;;;;;;8.20;5.18;;;15.60;99.90;;;;;;5056054;28;20213;-72
2021/10/25 13:14:12;;;;;;;6.88;4.35;;;15.60;99.90;;;;;;5055808;28;20672;-72
2021/10/25 13:16:44;;;;;;;5.63;4.35;;;15.60;99.90;;;;;;5055945;28;20202;-72
2021/10/25 13:19:11;;;;;;;5.90;3.95;;;15.50;99.90;;;;;;5056004;28;20576;-72
2021/10/25 13:21:38;;;;;;;5.22;4.80;;;15.50;99.90;;;;;;5055861;28;20312;-72
2021/10/25 13:24:07;;;;;;;5.18;4.43;;;15.50;99.90;;;;;;5055686;28;20241;-72
2021/10/25 13:26:37;;;;;;;7.55;3.90;;;15.40;99.90;;;;;;5055767;28;20226;-72
2021/10/25 13:29:04;;;;;;;3.88;3.40;;;15.40;99.90;;;;;;5055716;28;20206;-72
2021/10/25 13:31:31;;;;;;;4.45;4.05;;;15.30;99.90;;;;;;5055599;28;20205;-72
2021/10/25 13:34:00;;;;;;;4.53;4.05;;;15.40;99.90;;;;;;5055510;28;20296;-72
2021/10/25 13:36:27;;;;;;;4.05;3.65;;;15.40;99.90;;;;;;5055148;28;20205;-72
2021/10/25 13:38:54;;;;;;;5.32;3.85;;;15.30;99.80;;;;;;5055593;28;20292;-72
2021/10/25 13:41:22;;;;;;;4.28;3.63;;;15.30;99.90;;;;;;5055405;28;20225;-72
2021/10/25 13:43:49;;;;;;;5.95;4.03;;;15.30;99.90;;;;;;5055478;28;20205;-72
2021/10/25 13:46:16;;;;;;;4.20;3.80;;;15.20;99.50;;;;;;5055442;28;20230;-72
2021/10/25 13:48:43;;;;;;;3.95;3.42;;;15.30;99.90;;;;;;5055487;28;20542;-72
2021/10/25 13:51:10;;;;;;;4.68;3.85;;;15.20;99.60;;;;;;5055229;28;20622;-71
2021/10/25 13:53:37;;;;;;;4.63;3.80;;;15.20;99.90;;;;;;5055268;28;20206;-72
2021/10/25 13:56:07;;;;;;;4.47;3.92;;;15.20;99.90;;;;;;5055304;28;20205;-72
2021/10/25 13:58:35;;;;;;;4.70;3.75;;;15.10;99.90;;;;;;5055033;28;20671;-72
2021/10/25 14:01:02;;;;;;;4.85;3.13;;;15.10;99.90;;;;;;5055081;28;20560;-72
2021/10/25 14:03:29;;;;;;;3.30;3.00;;;15.10;99.90;;;;;;5055204;28;20572;-72
2021/10/25 14:05:59;;;;;;;3.75;3.00;;;15.10;99.90;;;;;;5055078;28;20232;-72
2021/10/25 14:08:25;;;;;;;2.72;2.50;;;15.10;99.90;;;;;;5055088;28;20209;-72
2021/10/25 14:10:53;;;;;;;4.38;3.22;;;15.10;99.80;;;;;;5054934;28;20387;-72
2021/10/25 14:13:27;;;;;;;2.92;2.30;;;15.20;99.20;;;;;;5054560;28;20698;-72
2021/10/25 14:16:08;;;;;;;2.97;2.47;;;15.20;97.60;;;;;;5055005;28;20224;-72